createdAt,value
2023-03-01T00:02:32.449Z,6.84
2023-03-01T00:05:35.016Z,6.86
2023-03-01T00:08:37.326Z,6.66
2023-03-01T00:11:39.922Z,6.77
2023-03-01T00:14:42.205Z,6.70
2023-03-01T00:17:44.508Z,6.67
2023-03-01T00:20:56.812Z,6.78
2023-03-01T00:23:59.286Z,6.78
2023-03-01T00:27:01.733Z,6.87
2023-03-01T00:30:04.352Z,6.89
2023-03-01T00:33:06.937Z,6.96
2023-03-01T00:36:10.145Z,6.78
2023-03-01T00:39:17.099Z,6.90
2023-03-01T00:42:19.383Z,6.88
2023-03-01T00:45:22.178Z,6.89
2023-03-01T00:48:24.602Z,6.80
2023-03-01T00:51:29.224Z,6.92
2023-03-01T00:54:32.697Z,6.96
2023-03-01T00:57:35.151Z,6.96
2023-03-01T01:00:37.632Z,6.87
2023-03-01T01:03:39.870Z,6.91
2023-03-01T01:06:47.362Z,6.98
2023-03-01T01:09:49.680Z,6.83
2023-03-01T01:12:53.024Z,6.86
2023-03-01T01:15:55.416Z,6.89
2023-03-01T01:18:58.756Z,6.81
2023-03-01T01:22:01.057Z,6.75
2023-03-01T01:25:03.426Z,6.80
2023-03-01T01:28:05.733Z,6.78
2023-03-01T01:31:08.470Z,6.77
2023-03-01T01:34:19.116Z,6.87
2023-03-01T01:37:21.789Z,6.81
2023-03-01T01:40:24.094Z,6.89
2023-03-01T01:43:38.242Z,6.87
2023-03-01T01:46:46.696Z,6.77
2023-03-01T01:49:52.600Z,6.83
2023-03-01T01:52:56.003Z,6.81
2023-03-01T01:56:00.704Z,6.86
2023-03-01T01:59:03.376Z,6.87
2023-03-01T02:02:06.435Z,6.88
2023-03-01T02:05:30.158Z,6.96
2023-03-01T02:08:35.349Z,6.93
2023-03-01T02:11:38.706Z,6.85
2023-03-01T02:14:41.187Z,6.95
2023-03-01T02:17:43.609Z,6.90
2023-03-01T02:20:55.910Z,6.86
2023-03-01T02:24:00.777Z,6.80
2023-03-01T02:27:04.105Z,6.73
2023-03-01T02:30:07.783Z,6.78
2023-03-01T02:33:10.087Z,6.83
2023-03-01T02:36:17.772Z,6.75
2023-03-01T02:39:43.225Z,6.79
2023-03-01T02:42:52.444Z,6.75
2023-03-01T02:45:59.613Z,6.73
2023-03-01T02:49:01.980Z,6.80
2023-03-01T02:52:23.101Z,6.82
2023-03-01T02:55:25.450Z,6.64
2023-03-01T02:58:27.940Z,6.70
2023-03-01T03:01:40.101Z,6.61
2023-03-01T03:04:44.117Z,6.61
2023-03-01T03:07:48.274Z,6.69
2023-03-01T03:10:50.907Z,6.78
2023-03-01T03:13:54.276Z,6.78
2023-03-01T03:16:56.966Z,6.72
2023-03-01T03:19:59.262Z,6.86
2023-03-01T03:23:01.938Z,6.88
2023-03-01T03:26:05.835Z,6.86
2023-03-01T03:29:08.159Z,6.80
2023-03-01T03:32:10.458Z,6.76
2023-03-01T03:35:12.926Z,6.63
2023-03-01T03:38:16.888Z,6.67
2023-03-01T03:41:19.459Z,6.58
2023-03-01T03:44:22.455Z,6.76
2023-03-01T03:47:24.735Z,6.61
2023-03-01T03:50:27.290Z,6.78
2023-03-01T03:53:30.637Z,6.69
2023-03-01T03:56:33.301Z,6.75
2023-03-01T03:59:35.901Z,6.90
2023-03-01T04:02:38.307Z,6.77
2023-03-01T04:05:41.379Z,6.90
2023-03-01T04:08:43.714Z,6.85
2023-03-01T04:11:46.091Z,6.83
2023-03-01T04:14:49.042Z,6.69
2023-03-01T04:17:53.222Z,6.79
2023-03-01T04:20:56.541Z,6.68
2023-03-01T04:23:59.165Z,6.68
2023-03-01T04:27:01.631Z,6.67
2023-03-01T04:30:04.961Z,6.61
2023-03-01T04:33:09.329Z,6.61
2023-03-01T04:36:13.566Z,6.78
2023-03-01T04:39:15.994Z,6.72
2023-03-01T04:42:19.499Z,6.60
2023-03-01T04:45:22.116Z,6.51
2023-03-01T04:48:25.663Z,6.49
2023-03-01T04:51:27.905Z,6.67
2023-03-01T04:54:31.347Z,6.65
2023-03-01T04:57:34.371Z,6.61
2023-03-01T05:00:36.759Z,6.48
2023-03-01T05:03:39.031Z,6.52
2023-03-01T05:06:41.546Z,6.59
2023-03-01T05:09:44.043Z,6.60
2023-03-01T05:12:47.717Z,6.79
2023-03-01T05:15:55.503Z,6.83
2023-03-01T05:18:58.926Z,6.80
2023-03-01T05:22:07.253Z,6.84
2023-03-01T05:25:09.810Z,6.92
2023-03-01T05:28:13.127Z,6.93
2023-03-01T05:31:15.659Z,6.91
2023-03-01T05:34:17.995Z,6.86
2023-03-01T05:37:20.549Z,6.87
2023-03-01T05:40:25.119Z,6.89
2023-03-01T05:43:27.544Z,7.06
2023-03-01T05:46:30.558Z,7.09
2023-03-01T05:49:33.288Z,7.23
2023-03-01T05:52:35.655Z,7.08
2023-03-01T05:55:38.581Z,7.29
2023-03-01T05:58:43.442Z,7.40
2023-03-01T06:01:45.954Z,7.28
2023-03-01T06:04:48.380Z,7.56
2023-03-01T06:07:52.298Z,7.60
2023-03-01T06:10:56.120Z,7.71
2023-03-01T06:13:58.558Z,7.78
2023-03-01T06:17:00.874Z,7.91
2023-03-01T06:20:04.691Z,7.89
2023-03-01T06:23:07.640Z,7.88
2023-03-01T06:26:11.136Z,7.96
2023-03-01T06:29:13.507Z,7.90
2023-03-01T06:32:19.462Z,7.86
2023-03-01T06:35:22.114Z,7.80
2023-03-01T06:38:25.643Z,7.91
2023-03-01T06:41:27.961Z,7.84
2023-03-01T06:44:30.473Z,7.90
2023-03-01T06:47:34.202Z,7.80
2023-03-01T06:50:36.948Z,7.90
2023-03-01T06:53:39.354Z,7.80
2023-03-01T06:56:41.806Z,7.82
2023-03-01T06:59:44.411Z,7.83
2023-03-01T07:02:46.886Z,7.66
2023-03-01T07:05:54.172Z,8.06
2023-03-01T07:08:57.103Z,7.91
2023-03-01T07:11:59.723Z,7.98
2023-03-01T07:15:02.073Z,7.94
2023-03-01T07:18:04.965Z,7.71
2023-03-01T07:21:22.122Z,7.75
2023-03-01T07:24:24.543Z,7.98
2023-03-01T07:27:28.256Z,7.95
2023-03-01T07:30:30.520Z,7.71
2023-03-01T07:33:33.434Z,8.01
2023-03-01T07:36:36.422Z,8.11
2023-03-01T07:39:38.877Z,8.17
2023-03-01T07:42:41.367Z,8.30
2023-03-01T07:45:44.305Z,8.27
2023-03-01T07:48:46.680Z,8.36
2023-03-01T07:51:48.969Z,8.56
2023-03-01T07:54:51.318Z,8.59
2023-03-01T07:57:53.755Z,8.67
2023-03-01T08:00:56.447Z,8.77
2023-03-01T08:03:58.827Z,8.83
2023-03-01T08:07:01.240Z,8.93
2023-03-01T08:10:04.088Z,9.01
2023-03-01T08:13:06.428Z,9.18
2023-03-01T08:16:12.906Z,9.23
2023-03-01T08:19:15.319Z,9.31
2023-03-01T08:22:17.651Z,9.82
2023-03-01T08:25:19.962Z,10.02
2023-03-01T08:28:22.223Z,9.87
2023-03-01T08:31:30.925Z,9.85
2023-03-01T08:34:33.381Z,9.92
2023-03-01T08:37:35.713Z,10.08
2023-03-01T08:40:37.970Z,10.16
2023-03-01T08:43:40.240Z,10.37
2023-03-01T08:46:42.888Z,10.30
2023-03-01T08:49:45.168Z,10.14
2023-03-01T08:52:47.563Z,10.30
2023-03-01T08:55:50.842Z,10.20
2023-03-01T08:58:53.185Z,10.16
2023-03-01T09:01:55.509Z,10.55
2023-03-01T09:04:57.881Z,10.38
2023-03-01T09:08:00.638Z,10.43
2023-03-01T09:11:04.734Z,10.58
2023-03-01T09:14:07.472Z,10.91
2023-03-01T09:17:09.917Z,11.29
2023-03-01T09:20:12.541Z,11.81
2023-03-01T09:23:14.968Z,12.62
2023-03-01T09:26:23.136Z,12.57
2023-03-01T09:29:25.629Z,12.79
2023-03-01T09:32:28.013Z,12.76
2023-03-01T09:35:30.394Z,13.18
2023-03-01T09:38:33.056Z,14.16
2023-03-01T09:41:49.301Z,14.23
2023-03-01T09:44:56.665Z,13.96
2023-03-01T09:47:59.860Z,13.57
2023-03-01T09:51:04.649Z,13.50
2023-03-01T09:54:09.546Z,13.71
2023-03-01T09:57:16.829Z,13.62
2023-03-01T10:00:40.945Z,14.01
2023-03-01T10:04:12.451Z,13.79
2023-03-01T10:07:15.722Z,13.99
2023-03-01T10:10:36.174Z,14.44
2023-03-01T10:14:01.145Z,14.59
2023-03-01T10:17:08.430Z,14.20
2023-03-01T10:20:25.232Z,14.59
2023-03-01T10:23:29.743Z,14.18
2023-03-01T10:26:50.423Z,14.27
2023-03-01T10:30:12.159Z,14.58
2023-03-01T10:33:17.536Z,14.73
2023-03-01T10:36:19.963Z,14.76
2023-03-01T10:39:24.565Z,15.46
2023-03-01T10:42:33.813Z,15.50
2023-03-01T10:45:38.145Z,15.78
2023-03-01T10:48:46.905Z,16.12
2023-03-01T10:51:51.335Z,16.12
2023-03-01T10:54:59.785Z,15.91
2023-03-01T10:58:23.242Z,15.88
2023-03-01T11:01:28.720Z,15.78
2023-03-01T11:04:31.396Z,16.06
2023-03-01T11:08:05.651Z,15.78
2023-03-01T11:11:24.734Z,16.19
2023-03-01T11:14:38.013Z,16.34
2023-03-01T11:17:53.861Z,16.06
2023-03-01T11:21:01.575Z,16.22
2023-03-01T11:24:07.833Z,16.28
2023-03-01T11:27:21.021Z,15.97
2023-03-01T11:31:09.310Z,15.72
2023-03-01T11:34:30.034Z,15.90
2023-03-01T11:37:55.306Z,15.70
2023-03-01T11:41:35.996Z,15.15
2023-03-01T11:44:45.362Z,14.87
2023-03-01T11:47:56.351Z,15.05
2023-03-01T11:51:06.361Z,15.22
2023-03-01T11:54:39.948Z,14.69
2023-03-01T12:02:55.481Z,14.79
2023-03-01T12:06:45.531Z,14.67
2023-03-01T12:10:00.017Z,14.10
2023-03-01T12:13:11.191Z,13.99
2023-03-01T12:16:52.768Z,13.93
2023-03-01T12:20:16.107Z,14.36
2023-03-01T12:23:43.108Z,14.44
2023-03-01T12:26:56.388Z,14.72
2023-03-01T12:30:05.480Z,14.69
2023-03-01T12:33:17.708Z,15.10
2023-03-01T12:36:35.335Z,15.21
2023-03-01T12:39:46.834Z,15.42
2023-03-01T12:43:03.154Z,14.93
2023-03-01T12:46:44.731Z,15.20
2023-03-01T12:49:57.551Z,15.35
2023-03-01T12:53:00.186Z,15.49
2023-03-01T12:56:07.263Z,15.67
2023-03-01T12:59:25.170Z,15.92
2023-03-01T13:02:37.933Z,16.05
2023-03-01T13:05:57.765Z,16.10
2023-03-01T13:09:10.969Z,15.93
2023-03-01T13:12:48.587Z,15.91
2023-03-01T13:19:37.786Z,15.71
2023-03-01T13:22:53.119Z,15.51
2023-03-01T13:26:19.485Z,15.38
2023-03-01T13:33:37.474Z,15.65
2023-03-01T13:36:50.271Z,15.59
2023-03-01T13:39:54.374Z,15.29
2023-03-01T13:43:05.586Z,15.25
2023-03-01T13:46:25.000Z,15.17
2023-03-01T13:49:45.361Z,14.93
2023-03-01T13:52:54.719Z,15.05
2023-03-01T13:56:00.109Z,14.92
2023-03-01T13:59:22.832Z,14.96
2023-03-01T14:02:25.178Z,15.06
2023-03-01T14:05:27.571Z,15.07
2023-03-01T14:08:31.650Z,15.01
2023-03-01T14:11:41.019Z,15.18
2023-03-01T14:14:57.559Z,14.96
2023-03-01T14:18:15.215Z,14.76
2023-03-01T14:21:17.805Z,14.56
2023-03-01T14:24:23.086Z,14.53
2023-03-01T14:27:34.158Z,14.44
2023-03-01T14:30:39.687Z,14.35
2023-03-01T14:33:43.002Z,14.35
2023-03-01T14:36:45.486Z,14.30
2023-03-01T14:39:48.399Z,14.08
2023-03-01T14:42:50.830Z,13.86
2023-03-01T14:45:53.128Z,13.89
2023-03-01T14:49:21.090Z,13.72
2023-03-01T14:52:25.937Z,13.55
2023-03-01T14:55:30.992Z,13.61
2023-03-01T14:58:37.046Z,13.53
2023-03-01T15:01:42.519Z,13.47
2023-03-01T15:04:48.133Z,13.26
2023-03-01T15:07:53.978Z,13.06
2023-03-01T15:11:23.942Z,12.97
2023-03-01T15:15:02.594Z,13.04
2023-03-01T15:18:34.412Z,13.11
2023-03-01T15:21:38.991Z,13.07
2023-03-01T15:24:41.653Z,12.85
2023-03-01T15:27:48.175Z,12.69
2023-03-01T15:31:01.569Z,12.60
2023-03-01T15:34:23.604Z,12.47
2023-03-01T15:37:53.733Z,12.33
2023-03-01T15:40:58.890Z,12.22
2023-03-01T15:44:17.708Z,12.36
2023-03-01T15:47:29.875Z,12.22
2023-03-01T15:50:35.503Z,12.30
2023-03-01T15:53:49.427Z,12.10
2023-03-01T15:56:58.427Z,12.04
2023-03-01T16:00:02.569Z,12.18
2023-03-01T16:03:10.028Z,12.11
2023-03-01T16:06:13.134Z,12.20
2023-03-01T16:09:16.592Z,12.10
2023-03-01T16:12:18.980Z,11.99
2023-03-01T16:15:24.380Z,11.87
2023-03-01T16:18:26.823Z,11.87
2023-03-01T16:21:29.433Z,11.78
2023-03-01T16:24:32.371Z,11.82
2023-03-01T16:27:34.728Z,11.61
2023-03-01T16:30:39.700Z,11.61
2023-03-01T16:33:42.087Z,11.39
2023-03-01T16:36:44.538Z,11.39
2023-03-01T16:39:46.889Z,11.35
2023-03-01T16:42:49.895Z,11.19
2023-03-01T16:45:52.451Z,11.23
2023-03-01T16:48:56.170Z,11.06
2023-03-01T16:51:59.332Z,11.07
2023-03-01T16:55:01.746Z,10.94
2023-03-01T16:58:05.414Z,10.90
2023-03-01T17:01:13.740Z,10.83
2023-03-01T17:04:16.202Z,10.62
2023-03-01T17:07:18.699Z,10.52
2023-03-01T17:10:21.064Z,10.41
2023-03-01T17:13:25.140Z,10.35
2023-03-01T17:16:27.913Z,10.24
2023-03-01T17:19:30.530Z,10.08
2023-03-01T17:22:32.860Z,9.95
2023-03-01T17:25:35.142Z,10.01
2023-03-01T17:28:38.545Z,9.88
2023-03-01T17:31:40.986Z,9.86
2023-03-01T17:34:46.867Z,10.02
2023-03-01T17:37:49.792Z,9.89
2023-03-01T17:40:52.241Z,9.68
2023-03-01T17:43:54.567Z,9.74
2023-03-01T17:46:57.209Z,9.74
2023-03-01T17:50:00.440Z,9.55
2023-03-01T17:53:07.496Z,9.52
2023-03-01T17:56:10.214Z,9.72
2023-03-01T17:59:12.488Z,9.57
2023-03-01T18:02:14.901Z,9.64
2023-03-01T18:09:17.595Z,9.61
2023-03-01T18:12:20.004Z,9.66
2023-03-01T18:15:22.500Z,9.57
2023-03-01T18:18:24.962Z,9.52
2023-03-01T18:21:28.942Z,9.42
2023-03-01T18:24:31.239Z,9.44
2023-03-01T18:27:33.750Z,9.46
2023-03-01T18:30:36.101Z,9.52
2023-03-01T18:33:39.641Z,9.48
2023-03-01T18:36:47.906Z,9.36
2023-03-01T18:39:58.388Z,9.21
2023-03-01T18:43:00.781Z,9.22
2023-03-01T18:46:05.430Z,9.07
2023-03-01T18:49:08.186Z,9.11
2023-03-01T18:52:10.588Z,9.04
2023-03-01T18:55:12.955Z,8.92
2023-03-01T18:58:15.320Z,8.85
2023-03-01T19:01:23.943Z,8.61
2023-03-01T19:04:27.377Z,8.60
2023-03-01T19:07:29.873Z,8.39
2023-03-01T19:10:32.229Z,8.63
2023-03-01T19:13:35.604Z,8.52
2023-03-01T19:16:38.500Z,8.61
2023-03-01T19:19:40.854Z,8.63
2023-03-01T19:22:43.110Z,8.61
2023-03-01T19:25:45.442Z,8.40
2023-03-01T19:28:48.010Z,8.45
2023-03-01T19:31:50.397Z,8.46
2023-03-01T19:34:52.714Z,8.53
2023-03-01T19:37:55.026Z,8.41
2023-03-01T19:40:57.650Z,8.50
2023-03-01T19:44:02.829Z,8.49
2023-03-01T19:47:05.187Z,8.49
2023-03-01T19:50:08.181Z,8.39
2023-03-01T19:53:10.882Z,8.37
2023-03-01T19:56:13.468Z,8.25
2023-03-01T19:59:16.310Z,8.21
2023-03-01T20:02:18.648Z,8.26
2023-03-01T20:05:21.118Z,8.07
2023-03-01T20:08:24.242Z,8.06
2023-03-01T20:11:26.547Z,8.02
2023-03-01T20:14:28.845Z,8.07
2023-03-01T20:17:31.172Z,8.21
2023-03-01T20:20:33.509Z,8.19
2023-03-01T20:23:35.848Z,8.17
2023-03-01T20:26:38.499Z,8.16
2023-03-01T20:29:40.827Z,8.13
2023-03-01T20:32:43.556Z,8.02
2023-03-01T20:35:46.055Z,7.93
2023-03-01T20:38:48.460Z,7.90
2023-03-01T20:41:50.786Z,7.90
2023-03-01T20:44:53.212Z,7.69
2023-03-01T20:47:55.548Z,7.64
2023-03-01T20:51:01.670Z,7.50
2023-03-01T20:54:05.317Z,7.49
2023-03-01T20:57:07.783Z,7.24
2023-03-01T21:00:10.741Z,7.25
2023-03-01T21:03:13.040Z,7.15
2023-03-01T21:06:15.413Z,7.05
2023-03-01T21:09:17.789Z,6.98
2023-03-01T21:12:20.269Z,7.11
2023-03-01T21:15:28.964Z,7.04
2023-03-01T21:18:32.681Z,6.97
2023-03-01T21:21:35.107Z,6.89
2023-03-01T21:24:37.578Z,6.78
2023-03-01T21:27:39.871Z,6.91
2023-03-01T21:30:42.259Z,6.91
2023-03-01T21:33:58.530Z,6.99
2023-03-01T21:37:01.939Z,7.04
2023-03-01T21:40:06.865Z,7.04
2023-03-01T21:43:09.186Z,7.02
2023-03-01T21:46:14.300Z,6.99
2023-03-01T21:49:17.186Z,7.05
2023-03-01T21:52:19.502Z,6.95
2023-03-01T21:55:22.266Z,6.97
2023-03-01T21:58:25.740Z,6.77
2023-03-01T22:01:29.409Z,7.02
2023-03-01T22:04:31.786Z,6.95
2023-03-01T22:07:34.141Z,7.02
2023-03-01T22:10:42.692Z,7.04
2023-03-01T22:13:52.047Z,7.16
2023-03-01T22:16:55.089Z,7.01
2023-03-01T22:19:57.534Z,6.85
2023-03-01T22:22:59.986Z,6.85
2023-03-01T22:26:02.378Z,6.67
2023-03-01T22:29:11.110Z,6.88
2023-03-01T22:32:13.728Z,6.90
2023-03-01T22:35:16.222Z,6.97
2023-03-01T22:38:18.542Z,6.97
2023-03-01T22:41:20.829Z,7.01
2023-03-01T22:44:24.169Z,6.91
2023-03-01T22:47:26.576Z,6.95
2023-03-01T22:50:29.073Z,6.94
2023-03-01T22:53:31.450Z,6.87
2023-03-01T22:56:36.810Z,6.88
2023-03-01T22:59:39.196Z,6.87
2023-03-01T23:02:41.839Z,6.82
2023-03-01T23:05:44.246Z,6.84
2023-03-01T23:08:51.269Z,6.85
2023-03-01T23:11:54.665Z,6.82
2023-03-01T23:14:57.214Z,6.65
2023-03-01T23:17:59.438Z,6.60
2023-03-01T23:21:10.703Z,6.46
2023-03-01T23:24:18.169Z,6.22
2023-03-01T23:27:20.694Z,5.99
2023-03-01T23:30:22.996Z,5.83
2023-03-01T23:33:25.823Z,5.79
2023-03-01T23:36:30.867Z,5.78
2023-03-01T23:39:33.505Z,5.74
2023-03-01T23:42:35.807Z,5.65
2023-03-01T23:45:43.087Z,5.50
2023-03-01T23:48:45.878Z,5.48
2023-03-01T23:51:48.862Z,5.41
2023-03-01T23:54:52.026Z,5.35
2023-03-01T23:57:54.475Z,5.18
